createdAt,value
2023-02-24T00:01:24.995Z,100.00
2023-02-24T00:05:00.173Z,100.00
2023-02-24T00:08:23.098Z,100.00
2023-02-24T00:11:59.143Z,100.00
2023-02-24T00:15:21.012Z,100.00
2023-02-24T00:18:54.189Z,100.00
2023-02-24T00:22:16.076Z,100.00
2023-02-24T00:25:38.013Z,100.00
2023-02-24T00:29:03.266Z,100.00
2023-02-24T00:32:27.665Z,100.00
2023-02-24T00:36:09.991Z,100.00
2023-02-24T00:39:41.380Z,100.00
2023-02-24T00:43:05.263Z,100.00
2023-02-24T00:46:31.232Z,100.00
2023-02-24T00:49:55.646Z,100.00
2023-02-24T00:53:18.295Z,100.00
2023-02-24T00:56:41.491Z,100.00
2023-02-24T01:00:11.439Z,100.00
2023-02-24T01:03:33.723Z,100.00
2023-02-24T01:07:01.682Z,100.00
2023-02-24T01:10:26.894Z,100.00
2023-02-24T01:13:49.660Z,100.00
2023-02-24T01:17:15.750Z,100.00
2023-02-24T01:20:44.261Z,100.00
2023-02-24T01:24:07.393Z,100.00
2023-02-24T01:27:31.662Z,100.00
2023-02-24T01:30:55.284Z,100.00
2023-02-24T01:34:22.614Z,100.00
2023-02-24T01:37:48.192Z,100.00
2023-02-24T01:41:22.310Z,100.00
2023-02-24T01:45:13.181Z,100.00
2023-02-24T01:48:35.338Z,100.00
2023-02-24T01:52:35.751Z,100.00
2023-02-24T01:56:03.349Z,100.00
2023-02-24T01:59:30.882Z,100.00
2023-02-24T02:03:33.423Z,100.00
2023-02-24T02:07:00.295Z,100.00
2023-02-24T02:10:28.656Z,100.00
2023-02-24T02:13:55.240Z,100.00
2023-02-24T02:17:38.159Z,100.00
2023-02-24T02:21:29.876Z,100.00
2023-02-24T02:25:20.716Z,100.00
2023-02-24T02:28:56.919Z,100.00
2023-02-24T02:33:02.088Z,100.00
2023-02-24T02:37:37.457Z,100.00
2023-02-24T02:41:13.445Z,100.00
2023-02-24T02:44:59.592Z,100.00
2023-02-24T02:48:48.403Z,100.00
2023-02-24T02:53:03.925Z,100.00
2023-02-24T02:56:37.657Z,100.00
2023-02-24T03:00:13.186Z,100.00
2023-02-24T03:03:42.664Z,100.00
2023-02-24T03:07:08.682Z,100.00
2023-02-24T03:10:34.258Z,100.00
2023-02-24T03:13:58.302Z,100.00
2023-02-24T03:17:28.657Z,100.00
2023-02-24T03:21:16.147Z,100.00
2023-02-24T03:24:42.274Z,100.00
2023-02-24T03:28:24.091Z,100.00
2023-02-24T03:32:09.925Z,100.00
2023-02-24T03:35:39.883Z,100.00
2023-02-24T03:39:04.431Z,100.00
2023-02-24T03:42:33.865Z,100.00
2023-02-24T03:46:01.312Z,100.00
2023-02-24T03:49:27.099Z,100.00
2023-02-24T03:53:01.608Z,100.00
2023-02-24T03:57:19.740Z,100.00
2023-02-24T04:00:58.355Z,100.00
2023-02-24T04:04:35.071Z,100.00
2023-02-24T04:08:24.628Z,100.00
2023-02-24T04:12:18.818Z,100.00
2023-02-24T04:15:53.067Z,100.00
2023-02-24T04:19:21.446Z,100.00
2023-02-24T04:22:54.672Z,100.00
2023-02-24T04:26:19.634Z,100.00
2023-02-24T04:29:52.294Z,100.00
2023-02-24T04:33:25.557Z,100.00
2023-02-24T04:36:49.913Z,100.00
2023-02-24T04:40:17.619Z,100.00
2023-02-24T04:43:40.850Z,100.00
2023-02-24T04:47:03.931Z,100.00
2023-02-24T04:50:26.083Z,100.00
2023-02-24T04:53:49.671Z,100.00
2023-02-24T04:57:12.673Z,100.00
2023-02-24T05:00:35.747Z,100.00
2023-02-24T05:04:00.114Z,100.00
2023-02-24T05:07:22.469Z,100.00
2023-02-24T05:10:47.272Z,100.00
2023-02-24T05:14:15.997Z,100.00
2023-02-24T05:17:52.560Z,100.00
2023-02-24T05:21:36.280Z,100.00
2023-02-24T05:24:58.318Z,100.00
2023-02-24T05:28:26.139Z,100.00
2023-02-24T05:31:50.950Z,100.00
2023-02-24T05:35:14.979Z,100.00
2023-02-24T05:38:38.069Z,100.00
2023-02-24T05:42:07.204Z,100.00
2023-02-24T05:45:43.175Z,100.00
2023-02-24T05:49:16.346Z,100.00
2023-02-24T05:52:39.330Z,100.00
2023-02-24T05:56:05.740Z,100.00
2023-02-24T05:59:32.665Z,100.00
2023-02-24T06:03:07.524Z,100.00
2023-02-24T06:06:29.470Z,100.00
2023-02-24T06:09:57.755Z,100.00
2023-02-24T06:13:20.652Z,100.00
2023-02-24T06:16:48.434Z,100.00
2023-02-24T06:20:15.234Z,100.00
2023-02-24T06:23:41.381Z,100.00
2023-02-24T06:27:17.437Z,100.00
2023-02-24T06:30:46.716Z,100.00
2023-02-24T06:34:13.064Z,100.00
2023-02-24T06:37:35.764Z,100.00
2023-02-24T06:41:10.752Z,100.00
2023-02-24T06:44:41.134Z,100.00
2023-02-24T06:48:11.930Z,100.00
2023-02-24T06:51:35.915Z,100.00
2023-02-24T06:54:57.764Z,100.00
2023-02-24T06:58:21.005Z,100.00
2023-02-24T07:01:45.318Z,100.00
2023-02-24T07:05:14.474Z,100.00
2023-02-24T07:08:46.094Z,100.00
2023-02-24T07:12:11.041Z,100.00
2023-02-24T07:15:37.053Z,100.00
2023-02-24T07:19:02.688Z,100.00
2023-02-24T07:22:31.763Z,100.00
2023-02-24T07:25:58.421Z,100.00
2023-02-24T07:29:20.266Z,100.00
2023-02-24T07:32:42.496Z,100.00
2023-02-24T07:36:08.583Z,100.00
2023-02-24T07:39:34.891Z,100.00
2023-02-24T07:42:57.200Z,100.00
2023-02-24T07:46:26.365Z,100.00
2023-02-24T07:49:49.588Z,100.00
2023-02-24T07:53:12.088Z,100.00
2023-02-24T07:56:46.003Z,100.00
2023-02-24T08:00:18.885Z,100.00
2023-02-24T08:03:45.279Z,100.00
2023-02-24T08:07:14.239Z,100.00
2023-02-24T08:10:37.308Z,100.00
2023-02-24T08:13:59.215Z,100.00
2023-02-24T08:17:26.972Z,100.00
2023-02-24T08:20:52.292Z,100.00
2023-02-24T08:24:25.332Z,100.00
2023-02-24T08:28:12.761Z,100.00
2023-02-24T08:31:41.001Z,100.00
2023-02-24T08:35:16.640Z,100.00
2023-02-24T08:38:42.083Z,100.00
2023-02-24T08:42:04.783Z,100.00
2023-02-24T08:45:33.547Z,100.00
2023-02-24T08:49:01.080Z,100.00
2023-02-24T08:52:29.803Z,100.00
2023-02-24T08:55:53.522Z,100.00
2023-02-24T08:59:37.235Z,100.00
2023-02-24T09:03:08.158Z,100.00
2023-02-24T09:07:10.726Z,100.00
2023-02-24T09:10:33.260Z,100.00
2023-02-24T09:13:58.122Z,100.00
2023-02-24T09:17:45.777Z,100.00
2023-02-24T09:21:33.500Z,100.00
2023-02-24T09:25:15.355Z,100.00
2023-02-24T09:28:48.526Z,100.00
2023-02-24T09:32:14.688Z,100.00
2023-02-24T09:36:10.211Z,100.00
2023-02-24T09:39:55.786Z,100.00
2023-02-24T09:43:30.378Z,100.00
2023-02-24T09:47:08.695Z,100.00
2023-02-24T09:51:03.593Z,100.00
2023-02-24T09:54:35.325Z,100.00
2023-02-24T09:58:16.957Z,100.00
2023-02-24T10:02:34.352Z,100.00
2023-02-24T10:06:12.262Z,100.00
2023-02-24T10:09:50.282Z,100.00
2023-02-24T10:13:32.638Z,100.00
2023-02-24T10:17:31.803Z,100.00
2023-02-24T10:22:00.170Z,100.00
2023-02-24T10:25:54.002Z,98.56
2023-02-24T10:29:36.227Z,100.00
2023-02-24T10:33:05.942Z,100.00
2023-02-24T10:36:35.151Z,100.00
2023-02-24T10:40:09.873Z,95.39
2023-02-24T10:43:45.300Z,90.28
2023-02-24T10:47:12.949Z,86.70
2023-02-24T10:50:56.034Z,82.81
2023-02-24T10:54:48.319Z,80.89
2023-02-24T10:58:38.156Z,73.92
2023-02-24T11:02:29.423Z,66.45
2023-02-24T11:06:42.217Z,66.35
2023-02-24T11:10:11.877Z,74.12
2023-02-24T11:13:55.203Z,69.26
2023-02-24T11:17:29.161Z,69.96
2023-02-24T11:20:58.245Z,71.28
2023-02-24T11:24:22.198Z,73.45
2023-02-24T11:27:51.817Z,78.52
2023-02-24T11:31:33.828Z,82.70
2023-02-24T11:35:22.411Z,84.46
2023-02-24T11:39:22.547Z,80.79
2023-02-24T11:42:57.293Z,83.01
2023-02-24T11:46:54.295Z,81.35
2023-02-24T11:50:39.756Z,82.43
2023-02-24T11:54:11.097Z,79.89
2023-02-24T11:57:43.482Z,77.95
2023-02-24T12:01:44.320Z,73.64
2023-02-24T12:05:19.444Z,70.44
2023-02-24T12:08:50.520Z,71.96
2023-02-24T12:12:44.498Z,65.93
2023-02-24T12:16:28.113Z,68.79
2023-02-24T12:20:34.389Z,73.46
2023-02-24T12:23:59.045Z,72.33
2023-02-24T12:27:33.151Z,72.07
2023-02-24T12:31:32.678Z,71.23
2023-02-24T12:35:41.882Z,68.69
2023-02-24T12:39:15.808Z,67.25
2023-02-24T12:43:06.136Z,68.65
2023-02-24T12:46:38.286Z,68.92
2023-02-24T12:50:45.520Z,68.68
2023-02-24T12:54:19.944Z,67.79
2023-02-24T12:58:20.664Z,65.56
2023-02-24T13:02:13.349Z,66.42
2023-02-24T13:06:16.471Z,65.36
2023-02-24T13:09:47.155Z,68.90
2023-02-24T13:13:23.390Z,66.60
2023-02-24T13:16:45.377Z,63.42
2023-02-24T13:20:12.193Z,63.34
2023-02-24T13:23:41.692Z,61.91
2023-02-24T13:27:23.918Z,61.85
2023-02-24T13:30:47.225Z,59.93
2023-02-24T13:34:41.691Z,61.43
2023-02-24T13:38:31.448Z,64.38
2023-02-24T13:42:20.177Z,66.83
2023-02-24T13:46:01.829Z,66.33
2023-02-24T13:50:14.871Z,66.93
2023-02-24T13:54:27.222Z,67.50
2023-02-24T13:58:17.631Z,68.64
2023-02-24T14:02:01.896Z,70.68
2023-02-24T14:05:37.129Z,73.13
2023-02-24T14:09:05.679Z,77.50
2023-02-24T14:12:37.144Z,80.85
2023-02-24T14:16:05.003Z,82.32
2023-02-24T14:19:29.196Z,82.78
2023-02-24T14:22:55.212Z,83.78
2023-02-24T14:26:20.379Z,84.17
2023-02-24T14:29:45.387Z,82.24
2023-02-24T14:33:36.117Z,81.64
2023-02-24T14:37:03.008Z,81.26
2023-02-24T14:40:26.008Z,80.02
2023-02-24T14:43:53.467Z,76.75
2023-02-24T14:47:19.367Z,75.88
2023-02-24T14:50:41.453Z,76.89
2023-02-24T14:54:15.950Z,78.18
2023-02-24T14:58:05.907Z,78.15
2023-02-24T15:01:36.674Z,82.31
2023-02-24T15:05:00.112Z,82.89
2023-02-24T15:08:43.007Z,81.59
2023-02-24T15:12:18.533Z,77.35
2023-02-24T15:15:45.847Z,78.24
2023-02-24T15:19:47.030Z,83.40
2023-02-24T15:23:32.012Z,84.69
2023-02-24T15:27:02.980Z,80.73
2023-02-24T15:31:01.215Z,77.61
2023-02-24T15:34:34.952Z,77.62
2023-02-24T15:37:57.899Z,76.69
2023-02-24T15:41:22.650Z,72.73
2023-02-24T15:45:02.743Z,66.51
2023-02-24T15:48:31.088Z,64.69
2023-02-24T15:51:59.509Z,64.46
2023-02-24T15:55:28.680Z,67.91
2023-02-24T15:58:53.638Z,71.05
2023-02-24T16:02:20.279Z,71.97
2023-02-24T16:05:42.109Z,74.07
2023-02-24T16:09:25.935Z,74.02
2023-02-24T16:12:57.876Z,73.64
2023-02-24T16:16:21.469Z,74.26
2023-02-24T16:19:48.688Z,74.43
2023-02-24T16:23:23.882Z,74.55
2023-02-24T16:26:47.936Z,75.65
2023-02-24T16:30:21.434Z,77.14
2023-02-24T16:33:55.071Z,75.92
2023-02-24T16:37:23.408Z,76.59
2023-02-24T16:40:49.083Z,75.83
2023-02-24T16:44:12.899Z,77.83
2023-02-24T16:47:37.354Z,80.01
2023-02-24T16:50:59.197Z,81.54
2023-02-24T16:54:30.027Z,84.66
2023-02-24T16:57:56.936Z,86.16
2023-02-24T17:01:21.433Z,89.70
2023-02-24T17:04:43.507Z,89.98
2023-02-24T17:08:05.399Z,89.07
2023-02-24T17:11:29.986Z,92.33
2023-02-24T17:14:59.448Z,98.39
2023-02-24T17:18:26.633Z,100.00
2023-02-24T17:21:49.652Z,100.00
2023-02-24T17:25:19.998Z,99.74
2023-02-24T17:28:42.330Z,97.88
2023-02-24T17:32:05.642Z,98.80
2023-02-24T17:35:28.934Z,100.00
2023-02-24T17:38:50.824Z,99.74
2023-02-24T17:42:12.723Z,100.00
2023-02-24T17:45:35.398Z,100.00
2023-02-24T17:49:00.653Z,100.00
2023-02-24T17:52:23.706Z,100.00
2023-02-24T17:56:01.471Z,100.00
2023-02-24T17:59:25.083Z,100.00
2023-02-24T18:02:47.006Z,100.00
2023-02-24T18:06:15.978Z,100.00
2023-02-24T18:09:38.876Z,100.00
2023-02-24T18:13:00.784Z,100.00
2023-02-24T18:16:22.997Z,100.00
2023-02-24T18:19:46.134Z,100.00
2023-02-24T18:23:07.958Z,100.00
2023-02-24T18:26:31.162Z,100.00
2023-02-24T18:29:54.318Z,100.00
2023-02-24T18:33:16.573Z,100.00
2023-02-24T18:36:38.752Z,100.00
2023-02-24T18:40:00.635Z,100.00
2023-02-24T18:43:22.495Z,100.00
2023-02-24T18:46:44.550Z,100.00
2023-02-24T18:50:08.752Z,100.00
2023-02-24T18:53:41.663Z,100.00
2023-02-24T18:57:03.575Z,100.00
2023-02-24T19:00:47.221Z,100.00
2023-02-24T19:04:13.635Z,100.00
2023-02-24T19:07:37.641Z,100.00
2023-02-24T19:10:59.484Z,100.00
2023-02-24T19:14:22.462Z,100.00
2023-02-24T19:17:45.475Z,100.00
2023-02-24T19:21:13.618Z,100.00
2023-02-24T19:24:35.467Z,100.00
2023-02-24T19:27:57.339Z,100.00
2023-02-24T19:31:26.941Z,100.00
2023-02-24T19:34:49.262Z,100.00
2023-02-24T19:38:18.514Z,100.00
2023-02-24T19:41:41.591Z,100.00
2023-02-24T19:45:03.700Z,100.00
2023-02-24T19:48:26.606Z,100.00
2023-02-24T19:51:48.620Z,100.00
2023-02-24T19:55:16.697Z,100.00
2023-02-24T19:58:41.813Z,100.00
2023-02-24T20:02:03.809Z,100.00
2023-02-24T20:05:25.703Z,100.00
2023-02-24T20:08:56.120Z,100.00
2023-02-24T20:12:17.978Z,100.00
2023-02-24T20:15:39.826Z,100.00
2023-02-24T20:19:03.703Z,100.00
2023-02-24T20:22:26.816Z,100.00
2023-02-24T20:25:53.593Z,100.00
2023-02-24T20:29:18.570Z,100.00
2023-02-24T20:32:40.458Z,100.00
2023-02-24T20:36:22.252Z,100.00
2023-02-24T20:39:44.707Z,100.00
2023-02-24T20:43:09.460Z,100.00
2023-02-24T20:46:33.022Z,100.00
2023-02-24T20:49:54.900Z,100.00
2023-02-24T20:53:17.216Z,100.00
2023-02-24T20:56:42.159Z,100.00
2023-02-24T21:00:07.711Z,100.00
2023-02-24T21:03:29.539Z,100.00
2023-02-24T21:06:51.989Z,100.00
2023-02-24T21:10:14.970Z,100.00
2023-02-24T21:13:42.116Z,100.00
2023-02-24T21:17:03.943Z,100.00
2023-02-24T21:20:25.820Z,100.00
2023-02-24T21:23:48.475Z,100.00
2023-02-24T21:27:12.288Z,100.00
2023-02-24T21:30:34.210Z,100.00
2023-02-24T21:33:56.634Z,100.00
2023-02-24T21:37:20.542Z,100.00
2023-02-24T21:40:45.059Z,100.00
2023-02-24T21:44:07.544Z,100.00
2023-02-24T21:47:32.307Z,100.00
2023-02-24T21:51:09.450Z,100.00
2023-02-24T21:54:32.917Z,100.00
2023-02-24T21:57:54.837Z,100.00
2023-02-24T22:01:29.638Z,100.00
2023-02-24T22:04:52.611Z,100.00
2023-02-24T22:08:15.859Z,100.00
2023-02-24T22:11:47.433Z,100.00
2023-02-24T22:15:11.540Z,100.00
2023-02-24T22:18:37.577Z,100.00
2023-02-24T22:21:59.899Z,100.00
2023-02-24T22:25:21.860Z,100.00
2023-02-24T22:28:46.818Z,100.00
2023-02-24T22:32:09.132Z,100.00
2023-02-24T22:35:37.148Z,100.00
2023-02-24T22:39:01.406Z,100.00
2023-02-24T22:42:29.254Z,100.00
2023-02-24T22:46:02.326Z,100.00
2023-02-24T22:49:25.688Z,100.00
2023-02-24T22:52:48.935Z,100.00
2023-02-24T22:56:13.571Z,100.00
2023-02-24T22:59:43.508Z,100.00
2023-02-24T23:03:05.417Z,100.00
2023-02-24T23:06:29.064Z,100.00
2023-02-24T23:09:54.137Z,100.00
2023-02-24T23:13:17.204Z,100.00
2023-02-24T23:16:45.146Z,100.00
2023-02-24T23:20:14.174Z,100.00
2023-02-24T23:23:37.541Z,100.00
2023-02-24T23:27:00.603Z,100.00
2023-02-24T23:30:22.758Z,100.00
2023-02-24T23:33:45.860Z,100.00
2023-02-24T23:37:11.857Z,100.00
2023-02-24T23:40:48.096Z,100.00
2023-02-24T23:44:13.368Z,100.00
2023-02-24T23:47:35.880Z,100.00
2023-02-24T23:50:57.801Z,100.00
2023-02-24T23:54:20.269Z,100.00
2023-02-24T23:57:42.268Z,100.00
